sensor_id;sensor_type;location;lat;lon;timestamp;P1;durP1;ratioP1;P2;durP2;ratioP2
59294;SDS011;45067;44.654;20.200;2022-12-18T00:00:19;35.38;;;19.30;;
59294;SDS011;45067;44.654;20.200;2022-12-18T00:02:45;32.33;;;18.85;;
59294;SDS011;45067;44.654;20.200;2022-12-18T00:05:11;35.90;;;19.92;;
59294;SDS011;45067;44.654;20.200;2022-12-18T00:07:37;37.22;;;20.80;;
59294;SDS011;45067;44.654;20.200;2022-12-18T00:10:03;33.28;;;18.45;;
59294;SDS011;45067;44.654;20.200;2022-12-18T00:12:29;34.15;;;19.70;;
59294;SDS011;45067;44.654;20.200;2022-12-18T00:14:56;33.90;;;18.83;;
59294;SDS011;45067;44.654;20.200;2022-12-18T00:17:22;37.17;;;21.40;;
59294;SDS011;45067;44.654;20.200;2022-12-18T00:19:51;38.38;;;21.65;;
59294;SDS011;45067;44.654;20.200;2022-12-18T00:22:17;34.33;;;19.63;;
59294;SDS011;45067;44.654;20.200;2022-12-18T00:24:46;32.50;;;18.95;;
59294;SDS011;45067;44.654;20.200;2022-12-18T00:30:17;36.15;;;20.17;;
59294;SDS011;45067;44.654;20.200;2022-12-18T00:32:43;39.55;;;20.77;;
59294;SDS011;45067;44.654;20.200;2022-12-18T00:35:09;35.50;;;20.70;;
59294;SDS011;45067;44.654;20.200;2022-12-18T00:37:35;37.38;;;20.30;;
59294;SDS011;45067;44.654;20.200;2022-12-18T00:40:02;36.10;;;20.92;;
59294;SDS011;45067;44.654;20.200;2022-12-18T00:45:52;37.05;;;19.83;;
59294;SDS011;45067;44.654;20.200;2022-12-18T00:48:18;38.45;;;20.90;;
59294;SDS011;45067;44.654;20.200;2022-12-18T00:50:44;37.92;;;20.13;;
59294;SDS011;45067;44.654;20.200;2022-12-18T00:53:11;37.72;;;20.25;;
59294;SDS011;45067;44.654;20.200;2022-12-18T00:55:37;35.17;;;18.13;;
59294;SDS011;45067;44.654;20.200;2022-12-18T00:58:03;33.40;;;18.35;;
59294;SDS011;45067;44.654;20.200;2022-12-18T01:00:29;33.42;;;17.85;;
59294;SDS011;45067;44.654;20.200;2022-12-18T01:02:55;34.92;;;18.50;;
59294;SDS011;45067;44.654;20.200;2022-12-18T01:05:22;32.40;;;18.55;;
59294;SDS011;45067;44.654;20.200;2022-12-18T01:07:48;33.15;;;19.02;;
59294;SDS011;45067;44.654;20.200;2022-12-18T01:10:14;33.67;;;18.02;;
59294;SDS011;45067;44.654;20.200;2022-12-18T01:12:40;34.22;;;19.45;;
59294;SDS011;45067;44.654;20.200;2022-12-18T01:15:06;34.17;;;18.45;;
59294;SDS011;45067;44.654;20.200;2022-12-18T01:17:33;34.72;;;19.30;;
59294;SDS011;45067;44.654;20.200;2022-12-18T01:19:59;37.55;;;18.75;;
59294;SDS011;45067;44.654;20.200;2022-12-18T01:22:26;31.60;;;18.60;;
59294;SDS011;45067;44.654;20.200;2022-12-18T01:24:52;34.38;;;19.35;;
59294;SDS011;45067;44.654;20.200;2022-12-18T01:30:21;36.00;;;18.42;;
59294;SDS011;45067;44.654;20.200;2022-12-18T01:32:47;34.88;;;19.17;;
59294;SDS011;45067;44.654;20.200;2022-12-18T01:35:14;34.88;;;19.17;;
59294;SDS011;45067;44.654;20.200;2022-12-18T01:37:40;33.45;;;18.73;;
59294;SDS011;45067;44.654;20.200;2022-12-18T01:40:06;35.00;;;18.90;;
59294;SDS011;45067;44.654;20.200;2022-12-18T01:45:36;31.88;;;17.38;;
59294;SDS011;45067;44.654;20.200;2022-12-18T01:48:03;33.85;;;18.30;;
59294;SDS011;45067;44.654;20.200;2022-12-18T01:50:32;31.33;;;17.80;;
59294;SDS011;45067;44.654;20.200;2022-12-18T01:53:15;33.53;;;18.33;;
59294;SDS011;45067;44.654;20.200;2022-12-18T01:55:45;35.28;;;18.73;;
59294;SDS011;45067;44.654;20.200;2022-12-18T01:58:12;33.75;;;17.60;;
59294;SDS011;45067;44.654;20.200;2022-12-18T02:00:39;31.67;;;17.80;;
59294;SDS011;45067;44.654;20.200;2022-12-18T02:03:05;33.25;;;18.40;;
59294;SDS011;45067;44.654;20.200;2022-12-18T02:05:44;34.28;;;18.45;;
59294;SDS011;45067;44.654;20.200;2022-12-18T02:13:30;33.55;;;17.95;;
59294;SDS011;45067;44.654;20.200;2022-12-18T02:18:31;34.33;;;17.52;;
59294;SDS011;45067;44.654;20.200;2022-12-18T02:23:37;31.30;;;18.13;;
59294;SDS011;45067;44.654;20.200;2022-12-18T02:28:33;31.33;;;17.67;;
59294;SDS011;45067;44.654;20.200;2022-12-18T02:31:01;34.20;;;18.73;;
59294;SDS011;45067;44.654;20.200;2022-12-18T02:33:27;32.88;;;17.33;;
59294;SDS011;45067;44.654;20.200;2022-12-18T02:35:54;33.75;;;18.58;;
59294;SDS011;45067;44.654;20.200;2022-12-18T02:38:23;32.67;;;17.40;;
59294;SDS011;45067;44.654;20.200;2022-12-18T02:40:49;31.73;;;17.35;;
59294;SDS011;45067;44.654;20.200;2022-12-18T02:43:16;31.95;;;17.50;;
59294;SDS011;45067;44.654;20.200;2022-12-18T02:45:56;30.63;;;17.88;;
59294;SDS011;45067;44.654;20.200;2022-12-18T02:48:23;33.28;;;17.83;;
59294;SDS011;45067;44.654;20.200;2022-12-18T02:51:15;36.22;;;19.42;;
59294;SDS011;45067;44.654;20.200;2022-12-18T03:01:11;34.10;;;18.33;;
59294;SDS011;45067;44.654;20.200;2022-12-18T03:03:47;32.70;;;18.58;;
59294;SDS011;45067;44.654;20.200;2022-12-18T03:09:02;31.45;;;16.90;;
59294;SDS011;45067;44.654;20.200;2022-12-18T03:11:30;32.55;;;18.08;;
59294;SDS011;45067;44.654;20.200;2022-12-18T03:14:17;32.70;;;18.25;;
59294;SDS011;45067;44.654;20.200;2022-12-18T03:16:46;29.52;;;15.95;;
59294;SDS011;45067;44.654;20.200;2022-12-18T03:19:18;30.27;;;16.85;;
59294;SDS011;45067;44.654;20.200;2022-12-18T03:21:46;31.08;;;16.50;;
59294;SDS011;45067;44.654;20.200;2022-12-18T03:24:13;30.58;;;17.10;;
59294;SDS011;45067;44.654;20.200;2022-12-18T03:26:40;30.95;;;17.10;;
59294;SDS011;45067;44.654;20.200;2022-12-18T03:29:20;27.17;;;16.30;;
59294;SDS011;45067;44.654;20.200;2022-12-18T03:31:49;31.58;;;16.05;;
59294;SDS011;45067;44.654;20.200;2022-12-18T03:34:19;33.03;;;17.25;;
59294;SDS011;45067;44.654;20.200;2022-12-18T03:36:47;30.10;;;16.75;;
59294;SDS011;45067;44.654;20.200;2022-12-18T03:39:13;30.00;;;16.00;;
59294;SDS011;45067;44.654;20.200;2022-12-18T03:44:22;30.75;;;16.98;;
59294;SDS011;45067;44.654;20.200;2022-12-18T03:46:54;33.80;;;17.77;;
59294;SDS011;45067;44.654;20.200;2022-12-18T03:54:31;30.08;;;15.90;;
59294;SDS011;45067;44.654;20.200;2022-12-18T03:57:06;31.58;;;17.17;;
59294;SDS011;45067;44.654;20.200;2022-12-18T03:59:33;34.67;;;17.52;;
59294;SDS011;45067;44.654;20.200;2022-12-18T04:01:59;34.40;;;16.58;;
59294;SDS011;45067;44.654;20.200;2022-12-18T04:04:27;34.03;;;17.45;;
59294;SDS011;45067;44.654;20.200;2022-12-18T04:06:54;33.55;;;17.50;;
59294;SDS011;45067;44.654;20.200;2022-12-18T04:09:20;36.90;;;16.63;;
59294;SDS011;45067;44.654;20.200;2022-12-18T04:11:47;32.78;;;16.75;;
59294;SDS011;45067;44.654;20.200;2022-12-18T04:14:13;30.52;;;16.92;;
59294;SDS011;45067;44.654;20.200;2022-12-18T04:16:39;32.03;;;16.20;;
59294;SDS011;45067;44.654;20.200;2022-12-18T04:19:05;31.23;;;17.02;;
59294;SDS011;45067;44.654;20.200;2022-12-18T04:21:31;32.83;;;17.38;;
59294;SDS011;45067;44.654;20.200;2022-12-18T04:23:57;32.85;;;18.50;;
59294;SDS011;45067;44.654;20.200;2022-12-18T04:26:24;31.05;;;17.52;;
59294;SDS011;45067;44.654;20.200;2022-12-18T04:28:50;31.52;;;17.13;;
59294;SDS011;45067;44.654;20.200;2022-12-18T04:31:16;35.53;;;17.77;;
59294;SDS011;45067;44.654;20.200;2022-12-18T04:33:42;34.75;;;17.98;;
59294;SDS011;45067;44.654;20.200;2022-12-18T04:36:08;32.55;;;18.25;;
59294;SDS011;45067;44.654;20.200;2022-12-18T04:38:35;34.35;;;18.58;;
59294;SDS011;45067;44.654;20.200;2022-12-18T04:41:01;29.55;;;16.40;;
59294;SDS011;45067;44.654;20.200;2022-12-18T04:46:30;33.53;;;17.65;;
59294;SDS011;45067;44.654;20.200;2022-12-18T04:48:56;30.70;;;17.42;;
59294;SDS011;45067;44.654;20.200;2022-12-18T04:51:22;32.55;;;17.05;;
59294;SDS011;45067;44.654;20.200;2022-12-18T04:53:48;32.40;;;16.77;;
59294;SDS011;45067;44.654;20.200;2022-12-18T04:56:15;35.35;;;18.17;;
59294;SDS011;45067;44.654;20.200;2022-12-18T05:02:04;34.53;;;18.13;;
59294;SDS011;45067;44.654;20.200;2022-12-18T05:04:30;30.90;;;16.85;;
59294;SDS011;45067;44.654;20.200;2022-12-18T05:06:56;33.90;;;17.80;;
59294;SDS011;45067;44.654;20.200;2022-12-18T05:09:22;31.02;;;17.17;;
59294;SDS011;45067;44.654;20.200;2022-12-18T05:11:48;33.38;;;17.65;;
59294;SDS011;45067;44.654;20.200;2022-12-18T05:14:14;33.95;;;17.15;;
59294;SDS011;45067;44.654;20.200;2022-12-18T05:16:40;32.35;;;18.13;;
59294;SDS011;45067;44.654;20.200;2022-12-18T05:19:07;33.08;;;18.05;;
59294;SDS011;45067;44.654;20.200;2022-12-18T05:21:33;31.90;;;17.90;;
59294;SDS011;45067;44.654;20.200;2022-12-18T05:23:59;33.05;;;18.58;;
59294;SDS011;45067;44.654;20.200;2022-12-18T05:26:25;39.45;;;22.25;;
59294;SDS011;45067;44.654;20.200;2022-12-18T05:32:13;38.22;;;20.75;;
59294;SDS011;45067;44.654;20.200;2022-12-18T05:34:39;32.78;;;18.30;;
59294;SDS011;45067;44.654;20.200;2022-12-18T05:37:05;33.90;;;19.15;;
59294;SDS011;45067;44.654;20.200;2022-12-18T05:39:31;33.13;;;18.88;;
59294;SDS011;45067;44.654;20.200;2022-12-18T05:41:57;35.30;;;18.98;;
59294;SDS011;45067;44.654;20.200;2022-12-18T05:44:23;34.25;;;18.95;;
59294;SDS011;45067;44.654;20.200;2022-12-18T05:46:49;33.83;;;18.08;;
59294;SDS011;45067;44.654;20.200;2022-12-18T05:49:15;36.88;;;20.13;;
59294;SDS011;45067;44.654;20.200;2022-12-18T05:51:42;38.92;;;19.77;;
59294;SDS011;45067;44.654;20.200;2022-12-18T05:54:08;36.33;;;18.70;;
59294;SDS011;45067;44.654;20.200;2022-12-18T06:02:41;45.95;;;22.85;;
59294;SDS011;45067;44.654;20.200;2022-12-18T06:05:07;38.75;;;21.65;;
59294;SDS011;45067;44.654;20.200;2022-12-18T06:07:34;43.58;;;22.55;;
59294;SDS011;45067;44.654;20.200;2022-12-18T06:10:00;38.83;;;21.83;;
59294;SDS011;45067;44.654;20.200;2022-12-18T06:12:26;40.55;;;21.50;;
59294;SDS011;45067;44.654;20.200;2022-12-18T06:14:52;35.72;;;19.88;;
59294;SDS011;45067;44.654;20.200;2022-12-18T06:17:18;41.10;;;21.23;;
59294;SDS011;45067;44.654;20.200;2022-12-18T06:19:44;43.67;;;21.77;;
59294;SDS011;45067;44.654;20.200;2022-12-18T06:22:10;41.67;;;21.83;;
59294;SDS011;45067;44.654;20.200;2022-12-18T06:24:36;40.33;;;21.73;;
59294;SDS011;45067;44.654;20.200;2022-12-18T06:27:02;41.15;;;20.90;;
59294;SDS011;45067;44.654;20.200;2022-12-18T06:29:28;39.42;;;22.25;;
59294;SDS011;45067;44.654;20.200;2022-12-18T06:31:54;39.08;;;21.33;;
59294;SDS011;45067;44.654;20.200;2022-12-18T06:34:20;40.17;;;20.88;;
59294;SDS011;45067;44.654;20.200;2022-12-18T06:36:50;40.17;;;20.13;;
59294;SDS011;45067;44.654;20.200;2022-12-18T06:39:18;39.42;;;20.80;;
59294;SDS011;45067;44.654;20.200;2022-12-18T06:41:44;40.40;;;21.48;;
59294;SDS011;45067;44.654;20.200;2022-12-18T06:47:14;40.85;;;20.55;;
59294;SDS011;45067;44.654;20.200;2022-12-18T06:49:40;41.58;;;21.35;;
59294;SDS011;45067;44.654;20.200;2022-12-18T06:52:06;44.13;;;22.25;;
59294;SDS011;45067;44.654;20.200;2022-12-18T06:54:32;41.63;;;21.75;;
59294;SDS011;45067;44.654;20.200;2022-12-18T06:56:58;39.97;;;21.80;;
59294;SDS011;45067;44.654;20.200;2022-12-18T06:59:24;39.72;;;20.98;;
59294;SDS011;45067;44.654;20.200;2022-12-18T07:01:50;38.88;;;21.30;;
59294;SDS011;45067;44.654;20.200;2022-12-18T07:04:16;38.95;;;21.35;;
59294;SDS011;45067;44.654;20.200;2022-12-18T07:06:42;44.97;;;22.77;;
59294;SDS011;45067;44.654;20.200;2022-12-18T07:09:08;41.63;;;21.70;;
59294;SDS011;45067;44.654;20.200;2022-12-18T07:11:35;46.22;;;21.70;;
59294;SDS011;45067;44.654;20.200;2022-12-18T07:17:04;42.28;;;21.40;;
59294;SDS011;45067;44.654;20.200;2022-12-18T07:19:30;41.58;;;21.80;;
59294;SDS011;45067;44.654;20.200;2022-12-18T07:21:56;45.70;;;22.63;;
59294;SDS011;45067;44.654;20.200;2022-12-18T07:24:22;42.55;;;22.25;;
59294;SDS011;45067;44.654;20.200;2022-12-18T07:26:49;43.30;;;21.70;;
59294;SDS011;45067;44.654;20.200;2022-12-18T07:32:18;43.10;;;21.80;;
59294;SDS011;45067;44.654;20.200;2022-12-18T07:34:44;45.85;;;22.95;;
59294;SDS011;45067;44.654;20.200;2022-12-18T07:37:10;49.03;;;24.70;;
59294;SDS011;45067;44.654;20.200;2022-12-18T07:39:36;51.00;;;27.05;;
59294;SDS011;45067;44.654;20.200;2022-12-18T07:42:03;54.20;;;29.27;;
59294;SDS011;45067;44.654;20.200;2022-12-18T07:47:51;40.90;;;20.92;;
59294;SDS011;45067;44.654;20.200;2022-12-18T07:50:17;40.85;;;21.33;;
59294;SDS011;45067;44.654;20.200;2022-12-18T07:52:44;46.03;;;23.95;;
59294;SDS011;45067;44.654;20.200;2022-12-18T07:55:10;43.20;;;22.40;;
59294;SDS011;45067;44.654;20.200;2022-12-18T07:57:36;44.67;;;24.48;;
59294;SDS011;45067;44.654;20.200;2022-12-18T08:00:02;42.75;;;22.45;;
59294;SDS011;45067;44.654;20.200;2022-12-18T08:02:30;45.72;;;24.58;;
59294;SDS011;45067;44.654;20.200;2022-12-18T08:04:56;48.00;;;24.95;;
59294;SDS011;45067;44.654;20.200;2022-12-18T08:07:23;43.97;;;23.55;;
59294;SDS011;45067;44.654;20.200;2022-12-18T08:09:49;46.85;;;25.05;;
59294;SDS011;45067;44.654;20.200;2022-12-18T08:12:15;47.92;;;25.20;;
59294;SDS011;45067;44.654;20.200;2022-12-18T08:17:45;45.00;;;24.80;;
59294;SDS011;45067;44.654;20.200;2022-12-18T08:20:11;44.28;;;24.08;;
59294;SDS011;45067;44.654;20.200;2022-12-18T08:22:40;44.95;;;24.17;;
59294;SDS011;45067;44.654;20.200;2022-12-18T08:25:06;45.25;;;24.00;;
59294;SDS011;45067;44.654;20.200;2022-12-18T08:27:32;42.75;;;24.48;;
59294;SDS011;45067;44.654;20.200;2022-12-18T08:29:58;43.90;;;24.10;;
59294;SDS011;45067;44.654;20.200;2022-12-18T08:32:25;42.28;;;24.42;;
59294;SDS011;45067;44.654;20.200;2022-12-18T08:34:51;40.25;;;23.88;;
59294;SDS011;45067;44.654;20.200;2022-12-18T08:37:17;46.47;;;24.10;;
59294;SDS011;45067;44.654;20.200;2022-12-18T08:39:43;38.55;;;22.92;;
59294;SDS011;45067;44.654;20.200;2022-12-18T08:42:09;44.08;;;24.30;;
59294;SDS011;45067;44.654;20.200;2022-12-18T08:47:58;36.47;;;20.45;;
59294;SDS011;45067;44.654;20.200;2022-12-18T08:50:24;39.80;;;22.25;;
59294;SDS011;45067;44.654;20.200;2022-12-18T08:52:50;42.75;;;23.42;;
59294;SDS011;45067;44.654;20.200;2022-12-18T08:55:16;38.75;;;22.60;;
59294;SDS011;45067;44.654;20.200;2022-12-18T08:57:42;39.63;;;22.20;;
59294;SDS011;45067;44.654;20.200;2022-12-18T09:00:08;40.15;;;23.13;;
59294;SDS011;45067;44.654;20.200;2022-12-18T09:02:35;37.88;;;21.70;;
59294;SDS011;45067;44.654;20.200;2022-12-18T09:05:01;41.88;;;23.92;;
59294;SDS011;45067;44.654;20.200;2022-12-18T09:07:27;37.47;;;22.48;;
59294;SDS011;45067;44.654;20.200;2022-12-18T09:09:53;40.00;;;22.70;;
59294;SDS011;45067;44.654;20.200;2022-12-18T09:12:20;40.10;;;22.65;;
59294;SDS011;45067;44.654;20.200;2022-12-18T09:17:49;39.13;;;21.65;;
59294;SDS011;45067;44.654;20.200;2022-12-18T09:20:17;42.47;;;24.35;;
59294;SDS011;45067;44.654;20.200;2022-12-18T09:22:44;39.17;;;22.30;;
59294;SDS011;45067;44.654;20.200;2022-12-18T09:25:10;41.75;;;24.60;;
59294;SDS011;45067;44.654;20.200;2022-12-18T09:27:36;41.10;;;23.58;;
59294;SDS011;45067;44.654;20.200;2022-12-18T09:33:06;43.83;;;24.15;;
59294;SDS011;45067;44.654;20.200;2022-12-18T09:35:32;41.70;;;24.33;;
59294;SDS011;45067;44.654;20.200;2022-12-18T09:37:58;42.70;;;23.67;;
59294;SDS011;45067;44.654;20.200;2022-12-18T09:40:25;38.88;;;22.80;;
59294;SDS011;45067;44.654;20.200;2022-12-18T09:42:57;36.97;;;19.90;;
59294;SDS011;45067;44.654;20.200;2022-12-18T09:45:37;40.47;;;23.05;;
59294;SDS011;45067;44.654;20.200;2022-12-18T09:48:05;40.10;;;22.60;;
59294;SDS011;45067;44.654;20.200;2022-12-18T09:50:36;35.15;;;20.88;;
59294;SDS011;45067;44.654;20.200;2022-12-18T09:53:05;38.78;;;21.75;;
59294;SDS011;45067;44.654;20.200;2022-12-18T09:55:36;40.55;;;23.48;;
59294;SDS011;45067;44.654;20.200;2022-12-18T09:58:15;43.38;;;25.40;;
59294;SDS011;45067;44.654;20.200;2022-12-18T10:00:42;45.72;;;24.88;;
59294;SDS011;45067;44.654;20.200;2022-12-18T10:03:09;42.47;;;24.50;;
59294;SDS011;45067;44.654;20.200;2022-12-18T10:05:37;42.53;;;23.63;;
59294;SDS011;45067;44.654;20.200;2022-12-18T10:08:14;38.25;;;22.33;;
59294;SDS011;45067;44.654;20.200;2022-12-18T10:10:53;37.72;;;21.38;;
59294;SDS011;45067;44.654;20.200;2022-12-18T10:13:23;36.60;;;20.80;;
59294;SDS011;45067;44.654;20.200;2022-12-18T10:24:01;37.05;;;21.65;;
59294;SDS011;45067;44.654;20.200;2022-12-18T10:26:34;40.72;;;22.80;;
59294;SDS011;45067;44.654;20.200;2022-12-18T10:29:00;37.80;;;21.98;;
59294;SDS011;45067;44.654;20.200;2022-12-18T10:31:27;44.65;;;25.88;;
59294;SDS011;45067;44.654;20.200;2022-12-18T10:33:53;38.05;;;23.05;;
59294;SDS011;45067;44.654;20.200;2022-12-18T10:36:20;40.00;;;23.40;;
59294;SDS011;45067;44.654;20.200;2022-12-18T10:38:46;37.85;;;22.70;;
59294;SDS011;45067;44.654;20.200;2022-12-18T10:43:47;36.75;;;22.13;;
59294;SDS011;45067;44.654;20.200;2022-12-18T10:46:17;38.83;;;22.50;;
59294;SDS011;45067;44.654;20.200;2022-12-18T10:51:22;39.17;;;23.92;;
59294;SDS011;45067;44.654;20.200;2022-12-18T10:54:13;47.70;;;27.85;;
59294;SDS011;45067;44.654;20.200;2022-12-18T10:56:39;43.47;;;25.98;;
59294;SDS011;45067;44.654;20.200;2022-12-18T10:59:07;43.80;;;26.88;;
59294;SDS011;45067;44.654;20.200;2022-12-18T11:04:16;42.95;;;28.65;;
59294;SDS011;45067;44.654;20.200;2022-12-18T11:06:55;36.40;;;24.38;;
59294;SDS011;45067;44.654;20.200;2022-12-18T11:09:28;36.13;;;23.90;;
59294;SDS011;45067;44.654;20.200;2022-12-18T11:11:58;40.72;;;27.27;;
59294;SDS011;45067;44.654;20.200;2022-12-18T11:16:51;31.90;;;21.85;;
59294;SDS011;45067;44.654;20.200;2022-12-18T11:19:34;34.88;;;22.27;;
59294;SDS011;45067;44.654;20.200;2022-12-18T11:22:17;35.42;;;21.95;;
59294;SDS011;45067;44.654;20.200;2022-12-18T11:24:50;34.88;;;22.38;;
59294;SDS011;45067;44.654;20.200;2022-12-18T11:27:18;40.25;;;25.85;;
59294;SDS011;45067;44.654;20.200;2022-12-18T11:29:45;39.47;;;24.88;;
59294;SDS011;45067;44.654;20.200;2022-12-18T11:34:45;34.92;;;21.23;;
59294;SDS011;45067;44.654;20.200;2022-12-18T11:37:12;34.50;;;21.80;;
59294;SDS011;45067;44.654;20.200;2022-12-18T11:42:12;32.08;;;21.08;;
59294;SDS011;45067;44.654;20.200;2022-12-18T11:44:43;35.45;;;21.75;;
59294;SDS011;45067;44.654;20.200;2022-12-18T11:47:26;36.45;;;22.05;;
59294;SDS011;45067;44.654;20.200;2022-12-18T11:49:55;48.65;;;27.95;;
59294;SDS011;45067;44.654;20.200;2022-12-18T11:55:01;38.05;;;23.27;;
59294;SDS011;45067;44.654;20.200;2022-12-18T12:07:55;35.78;;;23.92;;
59294;SDS011;45067;44.654;20.200;2022-12-18T12:13:06;34.05;;;22.65;;
59294;SDS011;45067;44.654;20.200;2022-12-18T12:26:10;35.67;;;24.40;;
59294;SDS011;45067;44.654;20.200;2022-12-18T12:31:51;34.95;;;22.35;;
59294;SDS011;45067;44.654;20.200;2022-12-18T12:39:33;33.03;;;21.55;;
59294;SDS011;45067;44.654;20.200;2022-12-18T12:42:01;35.03;;;21.52;;
59294;SDS011;45067;44.654;20.200;2022-12-18T12:47:51;36.13;;;22.38;;
59294;SDS011;45067;44.654;20.200;2022-12-18T12:50:19;40.42;;;23.45;;
59294;SDS011;45067;44.654;20.200;2022-12-18T12:52:55;39.72;;;24.70;;
59294;SDS011;45067;44.654;20.200;2022-12-18T12:55:26;39.83;;;23.73;;
59294;SDS011;45067;44.654;20.200;2022-12-18T13:06:14;45.40;;;26.42;;
59294;SDS011;45067;44.654;20.200;2022-12-18T13:08:54;43.53;;;26.45;;
59294;SDS011;45067;44.654;20.200;2022-12-18T13:11:31;49.97;;;29.30;;
59294;SDS011;45067;44.654;20.200;2022-12-18T13:14:26;46.17;;;26.80;;
59294;SDS011;45067;44.654;20.200;2022-12-18T13:17:13;45.38;;;27.85;;
59294;SDS011;45067;44.654;20.200;2022-12-18T13:19:39;49.78;;;28.33;;
59294;SDS011;45067;44.654;20.200;2022-12-18T13:22:12;44.95;;;27.02;;
59294;SDS011;45067;44.654;20.200;2022-12-18T13:24:45;45.80;;;26.17;;
59294;SDS011;45067;44.654;20.200;2022-12-18T13:29:56;44.50;;;26.38;;
59294;SDS011;45067;44.654;20.200;2022-12-18T13:32:25;45.45;;;26.40;;
59294;SDS011;45067;44.654;20.200;2022-12-18T13:37:41;50.97;;;27.95;;
59294;SDS011;45067;44.654;20.200;2022-12-18T13:42:53;51.03;;;27.25;;
59294;SDS011;45067;44.654;20.200;2022-12-18T13:45:39;49.28;;;25.98;;
59294;SDS011;45067;44.654;20.200;2022-12-18T13:48:13;53.33;;;28.73;;
59294;SDS011;45067;44.654;20.200;2022-12-18T13:50:43;50.20;;;28.65;;
59294;SDS011;45067;44.654;20.200;2022-12-18T13:53:24;51.13;;;28.92;;
59294;SDS011;45067;44.654;20.200;2022-12-18T13:55:51;50.47;;;28.58;;
59294;SDS011;45067;44.654;20.200;2022-12-18T13:58:18;56.70;;;32.83;;
59294;SDS011;45067;44.654;20.200;2022-12-18T14:00:44;55.60;;;30.38;;
59294;SDS011;45067;44.654;20.200;2022-12-18T14:03:21;51.30;;;27.92;;
59294;SDS011;45067;44.654;20.200;2022-12-18T14:05:55;49.03;;;27.15;;
59294;SDS011;45067;44.654;20.200;2022-12-18T14:08:22;53.58;;;29.90;;
59294;SDS011;45067;44.654;20.200;2022-12-18T14:10:49;71.05;;;38.22;;
59294;SDS011;45067;44.654;20.200;2022-12-18T14:16:23;64.32;;;32.15;;
59294;SDS011;45067;44.654;20.200;2022-12-18T14:18:56;60.95;;;32.22;;
59294;SDS011;45067;44.654;20.200;2022-12-18T14:21:28;73.15;;;37.80;;
59294;SDS011;45067;44.654;20.200;2022-12-18T14:24:14;72.57;;;37.63;;
59294;SDS011;45067;44.654;20.200;2022-12-18T14:26:41;58.15;;;32.17;;
59294;SDS011;45067;44.654;20.200;2022-12-18T14:32:11;71.90;;;36.90;;
59294;SDS011;45067;44.654;20.200;2022-12-18T14:34:41;62.95;;;34.85;;
59294;SDS011;45067;44.654;20.200;2022-12-18T14:37:09;54.67;;;30.05;;
59294;SDS011;45067;44.654;20.200;2022-12-18T14:39:35;55.83;;;31.25;;
59294;SDS011;45067;44.654;20.200;2022-12-18T14:42:01;63.13;;;33.45;;
59294;SDS011;45067;44.654;20.200;2022-12-18T14:47:30;68.35;;;32.67;;
59294;SDS011;45067;44.654;20.200;2022-12-18T14:49:56;60.22;;;32.85;;
59294;SDS011;45067;44.654;20.200;2022-12-18T14:52:26;63.08;;;32.83;;
59294;SDS011;45067;44.654;20.200;2022-12-18T14:54:53;62.08;;;33.47;;
59294;SDS011;45067;44.654;20.200;2022-12-18T15:02:57;91.28;;;49.22;;
59294;SDS011;45067;44.654;20.200;2022-12-18T15:05:27;85.35;;;46.30;;
59294;SDS011;45067;44.654;20.200;2022-12-18T15:07:55;70.93;;;36.95;;
59294;SDS011;45067;44.654;20.200;2022-12-18T15:10:25;62.40;;;32.58;;
59294;SDS011;45067;44.654;20.200;2022-12-18T15:18:32;72.78;;;37.00;;
59294;SDS011;45067;44.654;20.200;2022-12-18T15:20:59;81.90;;;41.65;;
59294;SDS011;45067;44.654;20.200;2022-12-18T15:23:45;82.25;;;41.65;;
59294;SDS011;45067;44.654;20.200;2022-12-18T15:26:12;83.85;;;42.20;;
59294;SDS011;45067;44.654;20.200;2022-12-18T15:28:55;81.28;;;41.92;;
59294;SDS011;45067;44.654;20.200;2022-12-18T15:34:27;67.18;;;35.92;;
59294;SDS011;45067;44.654;20.200;2022-12-18T15:36:53;70.07;;;36.85;;
59294;SDS011;45067;44.654;20.200;2022-12-18T15:39:19;70.35;;;36.22;;
59294;SDS011;45067;44.654;20.200;2022-12-18T15:41:45;76.68;;;39.25;;
59294;SDS011;45067;44.654;20.200;2022-12-18T15:44:30;68.43;;;35.50;;
59294;SDS011;45067;44.654;20.200;2022-12-18T15:46:57;73.55;;;39.30;;
59294;SDS011;45067;44.654;20.200;2022-12-18T15:49:23;89.30;;;46.75;;
59294;SDS011;45067;44.654;20.200;2022-12-18T15:51:51;74.00;;;40.20;;
59294;SDS011;45067;44.654;20.200;2022-12-18T15:54:18;72.38;;;37.65;;
59294;SDS011;45067;44.654;20.200;2022-12-18T15:57:04;71.80;;;37.03;;
59294;SDS011;45067;44.654;20.200;2022-12-18T15:59:52;59.90;;;30.85;;
59294;SDS011;45067;44.654;20.200;2022-12-18T16:02:19;94.88;;;50.28;;
59294;SDS011;45067;44.654;20.200;2022-12-18T16:04:47;68.07;;;36.13;;
59294;SDS011;45067;44.654;20.200;2022-12-18T16:07:13;64.13;;;33.47;;
59294;SDS011;45067;44.654;20.200;2022-12-18T16:09:39;64.22;;;33.42;;
59294;SDS011;45067;44.654;20.200;2022-12-18T16:12:14;68.00;;;36.15;;
59294;SDS011;45067;44.654;20.200;2022-12-18T16:14:41;64.53;;;33.95;;
59294;SDS011;45067;44.654;20.200;2022-12-18T16:17:09;57.63;;;30.48;;
59294;SDS011;45067;44.654;20.200;2022-12-18T16:19:35;56.25;;;29.40;;
59294;SDS011;45067;44.654;20.200;2022-12-18T16:22:01;56.97;;;30.52;;
59294;SDS011;45067;44.654;20.200;2022-12-18T16:24:28;62.20;;;33.95;;
59294;SDS011;45067;44.654;20.200;2022-12-18T16:26:55;57.17;;;30.48;;
59294;SDS011;45067;44.654;20.200;2022-12-18T16:29:22;61.25;;;31.75;;
59294;SDS011;45067;44.654;20.200;2022-12-18T16:34:59;59.65;;;32.65;;
59294;SDS011;45067;44.654;20.200;2022-12-18T16:37:25;66.47;;;33.85;;
59294;SDS011;45067;44.654;20.200;2022-12-18T16:39:51;69.38;;;37.63;;
59294;SDS011;45067;44.654;20.200;2022-12-18T16:42:18;70.57;;;38.50;;
59294;SDS011;45067;44.654;20.200;2022-12-18T16:44:45;77.35;;;39.42;;
59294;SDS011;45067;44.654;20.200;2022-12-18T16:47:12;74.80;;;39.13;;
59294;SDS011;45067;44.654;20.200;2022-12-18T16:49:38;72.22;;;38.60;;
59294;SDS011;45067;44.654;20.200;2022-12-18T16:52:05;75.07;;;39.38;;
59294;SDS011;45067;44.654;20.200;2022-12-18T16:54:31;72.97;;;38.78;;
59294;SDS011;45067;44.654;20.200;2022-12-18T16:56:59;68.63;;;36.85;;
59294;SDS011;45067;44.654;20.200;2022-12-18T16:59:25;67.43;;;36.70;;
59294;SDS011;45067;44.654;20.200;2022-12-18T17:04:55;67.22;;;35.50;;
59294;SDS011;45067;44.654;20.200;2022-12-18T17:07:22;63.10;;;32.78;;
59294;SDS011;45067;44.654;20.200;2022-12-18T17:09:48;70.20;;;36.03;;
59294;SDS011;45067;44.654;20.200;2022-12-18T17:12:15;58.50;;;32.17;;
59294;SDS011;45067;44.654;20.200;2022-12-18T17:14:41;61.63;;;32.35;;
59294;SDS011;45067;44.654;20.200;2022-12-18T17:20:11;80.78;;;42.67;;
59294;SDS011;45067;44.654;20.200;2022-12-18T17:22:37;80.65;;;43.05;;
59294;SDS011;45067;44.654;20.200;2022-12-18T17:25:03;75.13;;;40.40;;
59294;SDS011;45067;44.654;20.200;2022-12-18T17:27:29;75.07;;;39.95;;
59294;SDS011;45067;44.654;20.200;2022-12-18T17:29:56;75.95;;;42.65;;